createdAt,value
2017-04-13T00:00:12.615Z,44.45
2017-04-13T00:00:53.056Z,44.55
2017-04-13T00:01:33.507Z,44.65
2017-04-13T00:02:13.963Z,44.74
2017-04-13T00:02:54.405Z,44.84
2017-04-13T00:03:34.812Z,44.84
2017-04-13T00:04:15.274Z,45.03
2017-04-13T00:04:55.713Z,45.41
2017-04-13T00:07:14.366Z,45.41
2017-04-13T00:07:54.847Z,45.41
2017-04-13T00:10:12.645Z,45.31
2017-04-13T00:10:53.113Z,45.51
2017-04-13T00:11:33.572Z,45.41
2017-04-13T00:12:14.011Z,45.79
2017-04-13T00:12:54.443Z,45.79
2017-04-13T00:13:34.885Z,45.6
2017-04-13T00:14:15.447Z,45.79
2017-04-13T00:14:55.802Z,45.6
2017-04-13T00:15:36.270Z,45.89
2017-04-13T00:16:16.709Z,45.79
2017-04-13T00:16:57.148Z,46.37
2017-04-13T00:17:37.588Z,46.27
2017-04-13T00:18:18.026Z,45.98
2017-04-13T00:18:58.457Z,46.17
2017-04-13T00:19:38.951Z,46.56
2017-04-13T00:21:56.760Z,46.27
2017-04-13T00:22:37.231Z,46.27
2017-04-13T00:23:17.699Z,46.37
2017-04-13T00:23:58.186Z,46.27
2017-04-13T00:24:38.664Z,46.46
2017-04-13T00:25:19.149Z,46.27
2017-04-13T00:25:59.659Z,46.46
2017-04-13T00:26:40.626Z,46.27
2017-04-13T00:27:21.089Z,46.27
2017-04-13T00:29:08.580Z,46.27
2017-04-13T00:29:49.055Z,46.66
2017-04-13T00:30:29.561Z,46.84
2017-04-13T00:31:10.019Z,46.27
2017-04-13T00:31:50.504Z,46.56
2017-04-13T00:32:30.970Z,46.75
2017-04-13T00:33:11.456Z,46.75
2017-04-13T00:33:51.916Z,46.66
2017-04-13T00:34:32.371Z,46.75
2017-04-13T00:35:12.834Z,46.27
2017-04-13T00:35:53.271Z,46.84
2017-04-13T00:36:33.738Z,46.75
2017-04-13T00:37:14.190Z,46.56
2017-04-13T00:37:54.649Z,46.66
2017-04-13T00:38:35.120Z,46.75
2017-04-13T00:39:15.510Z,46.84
2017-04-13T00:39:55.934Z,46.75
2017-04-13T00:40:36.384Z,46.75
2017-04-13T00:41:16.819Z,46.75
2017-04-13T00:41:57.284Z,46.37
2017-04-13T00:42:37.843Z,46.75
2017-04-13T00:43:18.276Z,46.75
2017-04-13T00:43:58.766Z,46.94
2017-04-13T00:44:39.227Z,46.75
2017-04-13T00:45:19.644Z,46.75
2017-04-13T00:46:00.114Z,46.75
2017-04-13T00:46:40.567Z,46.84
2017-04-13T00:47:20.997Z,46.94
2017-04-13T00:49:08.504Z,47.3
2017-04-13T00:49:48.947Z,47.3
2017-04-13T00:50:29.422Z,47.11
2017-04-13T00:51:09.923Z,47.3
2017-04-13T00:51:50.343Z,47.39
2017-04-13T00:52:30.825Z,47.68
2017-04-13T00:53:11.271Z,47.68
2017-04-13T00:53:51.755Z,47.78
2017-04-13T00:54:32.204Z,47.87
2017-04-13T00:55:12.685Z,47.78
2017-04-13T00:55:53.106Z,47.68
2017-04-13T00:56:33.566Z,47.97
2017-04-13T00:57:13.998Z,47.78
2017-04-13T00:57:54.407Z,48.07
2017-04-13T00:58:34.832Z,47.97
2017-04-13T00:59:15.259Z,48.07
2017-04-13T00:59:55.677Z,47.68
2017-04-13T01:00:36.102Z,48.07
2017-04-13T01:01:16.549Z,47.97
2017-04-13T01:01:57.028Z,47.87
2017-04-13T01:02:37.463Z,47.87
2017-04-13T01:03:17.927Z,48.07
2017-04-13T01:03:58.384Z,47.97
2017-04-13T01:04:38.843Z,47.97
2017-04-13T01:05:19.298Z,47.97
2017-04-13T01:05:59.749Z,47.87
2017-04-13T01:06:40.176Z,47.87
2017-04-13T01:07:20.613Z,48.07
2017-04-13T01:08:01.087Z,47.97
2017-04-13T01:10:13.785Z,48.73
2017-04-13T01:10:54.269Z,48.83
2017-04-13T01:11:34.746Z,48.64
2017-04-13T01:12:15.193Z,48.64
2017-04-13T01:12:56.244Z,48.64
2017-04-13T01:13:36.681Z,48.54
2017-04-13T01:14:17.131Z,48.64
2017-04-13T01:14:57.548Z,48.64
2017-04-13T01:15:37.968Z,48.73
2017-04-13T01:17:55.782Z,49.02
2017-04-13T01:18:36.217Z,49.11
2017-04-13T01:19:16.619Z,48.73
2017-04-13T01:19:57.082Z,48.83
2017-04-13T01:20:37.545Z,48.93
2017-04-13T01:21:17.969Z,48.83
2017-04-13T01:21:58.413Z,49.11
2017-04-13T01:22:38.932Z,49.11
2017-04-13T01:23:19.375Z,49.21
2017-04-13T01:23:59.827Z,49.11
2017-04-13T01:24:40.281Z,48.83
2017-04-13T01:25:20.742Z,48.93
2017-04-13T01:26:01.167Z,49.11
2017-04-13T01:26:41.599Z,49.11
2017-04-13T01:27:22.042Z,48.93
2017-04-13T01:28:02.528Z,49.02
2017-04-13T01:28:43.009Z,48.93
2017-04-13T01:29:23.493Z,49.18
2017-04-13T01:30:03.926Z,49.59
2017-04-13T01:30:44.325Z,49.11
2017-04-13T01:31:24.790Z,49.21
2017-04-13T01:33:42.606Z,50.16
2017-04-13T01:34:23.104Z,49.57
2017-04-13T01:35:03.572Z,49.85
2017-04-13T01:35:44.039Z,49.57
2017-04-13T01:36:24.560Z,49.85
2017-04-13T01:37:05.008Z,49.85
2017-04-13T01:37:45.501Z,49.76
2017-04-13T01:38:26.026Z,49.57
2017-04-13T01:39:06.467Z,49.66
2017-04-13T01:39:46.920Z,49.76
2017-04-13T01:40:27.365Z,49.76
2017-04-13T01:41:07.823Z,50.14
2017-04-13T01:43:00.371Z,49.66
2017-04-13T01:43:40.860Z,49.76
2017-04-13T01:44:21.327Z,49.76
2017-04-13T01:45:01.790Z,49.95
2017-04-13T01:45:42.225Z,49.95
2017-04-13T01:46:22.656Z,49.85
2017-04-13T01:47:03.094Z,49.95
2017-04-13T01:47:43.530Z,49.66
2017-04-13T01:48:25.656Z,49.95
2017-04-13T01:49:06.106Z,49.85
2017-04-13T01:49:46.564Z,50.33
2017-04-13T01:50:26.986Z,50.43
2017-04-13T01:51:07.396Z,50.14
2017-04-13T01:51:47.830Z,50.14
2017-04-13T01:52:28.263Z,50.33
2017-04-13T01:53:08.704Z,50.43
2017-04-13T01:53:49.176Z,50.04
2017-04-13T01:54:29.619Z,50.35
2017-04-13T01:55:10.057Z,50.52
2017-04-13T01:55:50.531Z,50.43
2017-04-13T01:56:30.977Z,50.04
2017-04-13T01:58:18.473Z,50.14
2017-04-13T01:58:58.930Z,50.14
2017-04-13T01:59:39.387Z,50.14
2017-04-13T02:00:20.080Z,50.43
2017-04-13T02:01:00.574Z,50.43
2017-04-13T02:01:41.023Z,50.43
2017-04-13T02:02:21.526Z,50.52
2017-04-13T02:03:02.010Z,50.43
2017-04-13T02:03:42.502Z,50.24
2017-04-13T02:04:22.991Z,50.62
2017-04-13T02:05:03.460Z,50.33
2017-04-13T02:05:43.899Z,50.14
2017-04-13T02:06:24.386Z,50.52
2017-04-13T02:07:04.802Z,50.9
2017-04-13T02:08:52.287Z,51.48
2017-04-13T02:09:32.809Z,51.19
2017-04-13T02:11:25.406Z,51.29
2017-04-13T02:13:23.103Z,51.29
2017-04-13T02:14:03.574Z,51.09
2017-04-13T02:14:44.034Z,51.19
2017-04-13T02:17:01.855Z,51
2017-04-13T02:17:42.316Z,51
2017-04-13T02:18:22.804Z,51.29
2017-04-13T02:19:03.272Z,51.09
2017-04-13T02:19:43.714Z,51.29
2017-04-13T02:20:24.185Z,51.67
2017-04-13T02:21:04.643Z,51.38
2017-04-13T02:21:45.058Z,51.09
2017-04-13T02:22:25.499Z,51.57
2017-04-13T02:23:05.952Z,51.29
2017-04-13T02:23:46.437Z,51.76
2017-04-13T02:24:26.894Z,51.67
2017-04-13T02:25:07.344Z,51.57
2017-04-13T02:25:47.809Z,51.67
2017-04-13T02:26:28.261Z,51.67
2017-04-13T02:27:08.778Z,51.48
2017-04-13T02:27:49.166Z,51.57
2017-04-13T02:28:29.622Z,51.95
2017-04-13T02:29:10.097Z,51.57
2017-04-13T02:29:50.540Z,51.67
2017-04-13T02:30:30.959Z,51.86
2017-04-13T02:31:11.424Z,51.86
2017-04-13T02:31:51.860Z,51.95
2017-04-13T02:32:32.278Z,51.76
2017-04-13T02:33:12.726Z,51.67
2017-04-13T02:33:53.210Z,51.57
2017-04-13T02:34:33.642Z,51.86
2017-04-13T02:35:14.076Z,51.86
2017-04-13T02:35:54.543Z,51.57
2017-04-13T02:36:34.975Z,51.67
2017-04-13T02:37:15.443Z,51.76
2017-04-13T02:37:55.915Z,52.34
2017-04-13T02:38:36.400Z,52.05
2017-04-13T02:39:16.848Z,52.15
2017-04-13T02:39:57.327Z,52.62
2017-04-13T02:40:37.827Z,52.24
2017-04-13T02:41:18.239Z,52.43
2017-04-13T02:41:58.696Z,52.34
2017-04-13T02:42:39.156Z,52.53
2017-04-13T02:43:19.610Z,52.62
2017-04-13T02:44:00.060Z,52.62
2017-04-13T02:44:40.474Z,52.62
2017-04-13T02:45:20.937Z,52.72
2017-04-13T02:46:01.407Z,52.81
2017-04-13T02:47:59.022Z,52.69
2017-04-13T02:48:39.504Z,52.69
2017-04-13T02:49:20.026Z,52.53
2017-04-13T02:50:00.452Z,52.72
2017-04-13T02:52:18.263Z,52.88
2017-04-13T02:52:58.749Z,53.27
2017-04-13T02:53:39.269Z,53.27
2017-04-13T02:54:19.723Z,53.36
2017-04-13T02:55:00.162Z,53.27
2017-04-13T02:55:40.640Z,53.08
2017-04-13T02:56:21.042Z,53.65
2017-04-13T02:57:01.464Z,53.74
2017-04-13T02:59:19.272Z,53.93
2017-04-13T02:59:59.786Z,53.65
2017-04-13T03:00:40.279Z,53.84
2017-04-13T03:01:20.762Z,53.84
2017-04-13T03:02:01.204Z,53.84
2017-04-13T03:02:41.640Z,54.03
2017-04-13T03:03:22.118Z,54.03
2017-04-13T03:04:02.576Z,53.84
2017-04-13T03:05:50.078Z,54.13
2017-04-13T03:06:30.492Z,54.13
2017-04-13T03:07:10.961Z,54.41
2017-04-13T03:07:51.398Z,54.03
2017-04-13T03:08:31.866Z,54.32
2017-04-13T03:09:12.283Z,54.5
2017-04-13T03:09:52.731Z,54.5
2017-04-13T03:10:33.166Z,54.13
2017-04-13T03:11:13.603Z,53.84
2017-04-13T03:11:54.039Z,54.41
2017-04-13T03:12:34.512Z,54.13
2017-04-13T03:13:14.935Z,54.32
2017-04-13T03:13:55.383Z,54.32
2017-04-13T03:14:35.843Z,54.03
2017-04-13T03:15:16.285Z,54.13
2017-04-13T03:15:56.711Z,54.5
2017-04-13T03:16:37.170Z,54.22
2017-04-13T03:17:17.627Z,54.32
2017-04-13T03:17:58.128Z,54.7
2017-04-13T03:18:38.534Z,55.08
2017-04-13T03:19:19.002Z,54.89
2017-04-13T03:19:59.463Z,54.89
2017-04-13T03:20:39.967Z,55.08
2017-04-13T03:22:57.794Z,55.55
2017-04-13T03:23:38.240Z,55.65
2017-04-13T03:24:18.714Z,55.75
2017-04-13T03:24:59.188Z,55.36
2017-04-13T03:25:39.723Z,55.46
2017-04-13T03:26:20.169Z,55.82
2017-04-13T03:27:00.594Z,55.82
2017-04-13T03:29:18.400Z,55.62
2017-04-13T03:29:58.826Z,55.72
2017-04-13T03:30:39.303Z,55.84
2017-04-13T03:31:19.811Z,55.72
2017-04-13T03:32:00.266Z,55.84
2017-04-13T03:32:40.695Z,55.75
2017-04-13T03:33:21.109Z,55.72
2017-04-13T03:34:01.556Z,55.82
2017-04-13T03:34:42.020Z,56.29
2017-04-13T03:35:22.463Z,56.38
2017-04-13T03:36:02.926Z,55.91
2017-04-13T03:36:43.383Z,56.58
2017-04-13T03:37:23.833Z,56.58
2017-04-13T03:38:04.349Z,56.87
2017-04-13T03:38:44.812Z,56.77
2017-04-13T03:39:25.228Z,56.87
2017-04-13T03:40:05.685Z,57.24
2017-04-13T03:40:46.172Z,56.67
2017-04-13T03:41:26.642Z,57.24
2017-04-13T03:42:07.051Z,56.77
2017-04-13T03:44:19.832Z,56.87
2017-04-13T03:45:00.225Z,56.77
2017-04-13T03:45:40.695Z,56.58
2017-04-13T03:46:21.161Z,56.96
2017-04-13T03:48:08.639Z,57.34
2017-04-13T03:48:49.140Z,57.43
2017-04-13T03:49:29.517Z,57.24
2017-04-13T03:50:09.983Z,57.34
2017-04-13T03:50:50.433Z,57.34
2017-04-13T03:51:30.898Z,57.24
2017-04-13T03:52:11.319Z,57.34
2017-04-13T03:52:51.762Z,57.24
2017-04-13T03:53:32.222Z,57.24
2017-04-13T03:54:12.681Z,57.34
2017-04-13T03:54:53.094Z,57.63
2017-04-13T03:55:33.550Z,57.72
2017-04-13T03:56:13.990Z,57.72
2017-04-13T03:56:54.411Z,57.53
2017-04-13T03:57:34.864Z,57.72
2017-04-13T03:58:15.276Z,57.53
2017-04-13T03:58:55.748Z,57.72
2017-04-13T03:59:36.186Z,57.82
2017-04-13T04:00:16.601Z,58.01
2017-04-13T04:02:14.234Z,58.01
2017-04-13T04:02:54.739Z,57.63
2017-04-13T04:03:35.252Z,57.53
2017-04-13T04:04:15.725Z,58.01
2017-04-13T04:04:56.214Z,58.2
2017-04-13T04:05:36.700Z,58.29
2017-04-13T04:06:17.193Z,58.29
2017-04-13T04:06:57.653Z,58.39
2017-04-13T04:07:38.095Z,58.2
2017-04-13T04:08:18.525Z,58.29
2017-04-13T04:08:58.991Z,57.79
2017-04-13T04:09:39.447Z,58.29
2017-04-13T04:10:19.892Z,58.26
2017-04-13T04:11:00.938Z,58.36
2017-04-13T04:11:41.362Z,58.39
2017-04-13T04:12:21.823Z,58.29
2017-04-13T04:14:19.457Z,58.39
2017-04-13T04:14:59.912Z,58.46
2017-04-13T04:15:40.485Z,58.26
2017-04-13T04:16:20.984Z,58.36
2017-04-13T04:17:01.393Z,58.26
2017-04-13T04:17:41.817Z,58.46
2017-04-13T04:18:22.250Z,58.36
2017-04-13T04:19:02.678Z,59.12
2017-04-13T04:19:43.127Z,58.94
2017-04-13T04:20:23.576Z,59.03
2017-04-13T04:21:04.023Z,58.55
2017-04-13T04:23:01.689Z,59.12
2017-04-13T04:23:42.115Z,58.94
2017-04-13T04:24:22.561Z,59.31
2017-04-13T04:25:02.993Z,59.31
2017-04-13T04:25:43.444Z,59.51
2017-04-13T04:26:23.873Z,58.84
2017-04-13T04:27:04.309Z,59.31
2017-04-13T04:27:44.724Z,59.7
2017-04-13T04:28:25.143Z,59.99
2017-04-13T04:29:05.627Z,59.99
2017-04-13T04:29:46.102Z,59.7
2017-04-13T04:30:26.520Z,59.7
2017-04-13T04:31:06.960Z,59.89
2017-04-13T04:31:48.183Z,59.79
2017-04-13T04:32:28.632Z,59.99
2017-04-13T04:33:09.060Z,59.7
2017-04-13T04:33:49.517Z,60.08
2017-04-13T04:34:29.975Z,60.46
2017-04-13T04:35:10.393Z,59.6
2017-04-13T04:35:50.823Z,60.27
2017-04-13T04:36:31.250Z,60.08
2017-04-13T04:37:11.727Z,59.89
2017-04-13T04:37:52.169Z,60.17
2017-04-13T04:38:32.624Z,59.99
2017-04-13T04:39:13.080Z,60.27
2017-04-13T04:39:53.549Z,60.27
2017-04-13T04:40:34.000Z,60.17
2017-04-13T04:41:14.457Z,60.27
2017-04-13T04:41:54.867Z,60.75
2017-04-13T04:42:35.317Z,60.46
2017-04-13T04:43:15.733Z,60.62
2017-04-13T04:43:56.181Z,60.62
2017-04-13T04:44:36.635Z,60.46
2017-04-13T04:45:17.083Z,60.55
2017-04-13T04:45:57.570Z,60.46
2017-04-13T04:46:38.972Z,61.1
2017-04-13T04:47:19.408Z,60.62
2017-04-13T04:47:59.866Z,60.55
2017-04-13T04:48:40.307Z,61.22
2017-04-13T04:50:58.067Z,60.94
2017-04-13T04:51:38.534Z,61.04
2017-04-13T04:52:19.037Z,60.84
2017-04-13T04:52:59.470Z,60.94
2017-04-13T04:53:39.953Z,60.81
2017-04-13T04:54:20.350Z,60.84
2017-04-13T04:55:00.814Z,61.1
2017-04-13T04:55:41.242Z,61.1
2017-04-13T04:56:21.685Z,61.22
2017-04-13T04:57:02.154Z,60.94
2017-04-13T04:57:42.561Z,61.04
2017-04-13T04:58:23.003Z,61.04
2017-04-13T04:59:03.478Z,60.84
2017-04-13T04:59:43.946Z,60.84
2017-04-13T05:00:24.381Z,61.04
2017-04-13T05:01:04.902Z,61.04
2017-04-13T05:01:45.347Z,60.84
2017-04-13T05:02:25.767Z,61.1
2017-04-13T05:03:06.230Z,60.55
2017-04-13T05:03:46.673Z,61.13
2017-04-13T05:04:27.150Z,61.38
2017-04-13T05:05:07.588Z,61
2017-04-13T05:05:48.015Z,61.04
2017-04-13T05:06:28.475Z,61.13
2017-04-13T05:07:08.919Z,61.13
2017-04-13T05:07:49.380Z,61.13
2017-04-13T05:08:29.836Z,61.29
2017-04-13T05:09:10.337Z,61.67
2017-04-13T05:09:50.705Z,61.32
2017-04-13T05:10:31.154Z,61.29
2017-04-13T05:12:18.640Z,61.1
2017-04-13T05:12:59.071Z,61.19
2017-04-13T05:13:39.522Z,61.22
2017-04-13T05:14:19.970Z,61.1
2017-04-13T05:16:12.564Z,61.29
2017-04-13T05:16:53.042Z,61.1
2017-04-13T05:17:34.265Z,60.75
2017-04-13T05:18:14.660Z,60.84
2017-04-13T05:18:55.143Z,61.29
2017-04-13T05:19:35.585Z,61.6
2017-04-13T05:20:16.044Z,61.41
2017-04-13T05:20:56.509Z,61.41
2017-04-13T05:21:36.958Z,61.04
2017-04-13T05:22:17.421Z,61.51
2017-04-13T05:22:57.864Z,61.29
2017-04-13T05:23:38.332Z,61.29
2017-04-13T05:25:36.027Z,61.22
2017-04-13T05:26:16.488Z,61.38
2017-04-13T05:26:56.946Z,61.51
2017-04-13T05:27:37.430Z,61.29
2017-04-13T05:28:17.903Z,61.41
2017-04-13T05:28:58.383Z,61.57
2017-04-13T05:29:38.852Z,61.76
2017-04-13T05:30:19.298Z,62.08
2017-04-13T05:30:59.747Z,61.38
2017-04-13T05:31:40.213Z,61.48
2017-04-13T05:32:20.666Z,61.48
2017-04-13T05:33:01.121Z,61.6
2017-04-13T05:33:41.587Z,61.86
2017-04-13T05:34:22.036Z,61.41
2017-04-13T05:35:02.603Z,61.41
2017-04-13T05:35:42.973Z,61.57
2017-04-13T05:36:23.422Z,61.67
2017-04-13T05:37:03.886Z,61.51
2017-04-13T05:37:44.282Z,61.7
2017-04-13T05:38:24.761Z,61.41
2017-04-13T05:39:05.247Z,61.6
2017-04-13T05:39:45.698Z,61.7
2017-04-13T05:40:26.154Z,61.22
2017-04-13T05:41:06.593Z,60.94
2017-04-13T05:43:04.310Z,61.41
2017-04-13T05:43:44.811Z,60.94
2017-04-13T05:44:25.300Z,61.04
2017-04-13T05:45:05.785Z,61.29
2017-04-13T05:45:46.215Z,60.94
2017-04-13T05:46:26.699Z,61.13
2017-04-13T05:47:07.144Z,60.84
2017-04-13T05:47:47.581Z,60.94
2017-04-13T05:50:05.380Z,60.94
2017-04-13T05:50:45.896Z,61.13
2017-04-13T05:51:26.353Z,60.46
2017-04-13T05:52:06.868Z,60.94
2017-04-13T05:52:47.326Z,61.04
2017-04-13T05:53:27.783Z,61.04
2017-04-13T05:54:08.269Z,60.46
2017-04-13T05:54:48.724Z,60.55
2017-04-13T05:55:29.098Z,60.75
2017-04-13T05:56:09.554Z,60.84
2017-04-13T05:56:49.974Z,60.65
2017-04-13T05:57:30.432Z,59.79
2017-04-13T05:58:10.875Z,59.41
2017-04-13T05:58:51.297Z,59.51
2017-04-13T05:59:31.752Z,59.41
2017-04-13T06:00:12.211Z,59.7
2017-04-13T06:00:52.626Z,58.97
2017-04-13T06:01:33.128Z,58.84
2017-04-13T06:02:13.584Z,58.87
2017-04-13T06:02:54.104Z,59.06
2017-04-13T06:03:34.553Z,59.16
2017-04-13T06:04:15.582Z,58.94
2017-04-13T06:04:56.022Z,58.75
2017-04-13T06:05:36.488Z,58.97
2017-04-13T06:06:16.936Z,58.97
2017-04-13T06:06:57.449Z,59.12
2017-04-13T06:09:15.277Z,58.94
2017-04-13T06:09:55.767Z,59.12
2017-04-13T06:10:36.266Z,59.6
2017-04-13T06:11:16.730Z,59.89
2017-04-13T06:11:57.196Z,59.89
2017-04-13T06:12:37.678Z,59.89
2017-04-13T06:13:18.146Z,59.79
2017-04-13T06:13:58.619Z,59.6
2017-04-13T06:14:39.126Z,59.31
2017-04-13T06:15:19.559Z,59.41
2017-04-13T06:16:00.005Z,58.84
2017-04-13T06:16:40.444Z,59.12
2017-04-13T06:17:20.865Z,58.94
2017-04-13T06:18:01.320Z,58.75
2017-04-13T06:18:41.781Z,59.12
2017-04-13T06:19:22.195Z,59.12
2017-04-13T06:20:02.641Z,59.6
2017-04-13T06:20:43.069Z,59.6
2017-04-13T06:21:23.520Z,59.89
2017-04-13T06:22:03.965Z,59.41
2017-04-13T06:22:44.418Z,59.22
2017-04-13T06:23:24.875Z,59.6
2017-04-13T06:24:05.359Z,59.03
2017-04-13T06:24:45.795Z,58.94
2017-04-13T06:25:26.218Z,59.03
2017-04-13T06:26:06.676Z,58.84
2017-04-13T06:26:47.108Z,58.58
2017-04-13T06:29:04.940Z,58.55
2017-04-13T06:29:45.351Z,58.29
2017-04-13T06:30:25.800Z,58.17
2017-04-13T06:31:06.255Z,58.17
2017-04-13T06:31:46.758Z,58.36
2017-04-13T06:32:27.180Z,58.55
2017-04-13T06:33:07.651Z,58.36
2017-04-13T06:33:48.137Z,58.58
2017-04-13T06:34:28.568Z,58.58
2017-04-13T06:35:09.049Z,58.46
2017-04-13T06:35:49.464Z,58.11
2017-04-13T06:36:29.971Z,57.72
2017-04-13T06:37:10.389Z,57.63
2017-04-13T06:37:50.856Z,58.11
2017-04-13T06:38:31.297Z,57.53
2017-04-13T06:39:11.758Z,57.06
2017-04-13T06:39:52.208Z,57.06
2017-04-13T06:40:32.660Z,57.53
2017-04-13T06:41:13.137Z,56.96
2017-04-13T06:41:53.612Z,56.77
2017-04-13T06:42:34.045Z,56.58
2017-04-13T06:43:14.455Z,56.87
2017-04-13T06:43:54.897Z,57.24
2017-04-13T06:44:35.323Z,56.67
2017-04-13T06:45:15.784Z,56.96
2017-04-13T06:45:56.213Z,57.06
2017-04-13T06:46:36.695Z,57.34
2017-04-13T06:47:17.492Z,57.06
2017-04-13T06:47:57.929Z,57.15
2017-04-13T06:48:38.371Z,57.06
2017-04-13T06:49:18.833Z,56.87
2017-04-13T06:49:59.291Z,57.24
2017-04-13T06:50:40.405Z,56.96
2017-04-13T06:51:20.833Z,56.96
2017-04-13T06:52:01.291Z,56.58
2017-04-13T06:52:41.849Z,56.67
2017-04-13T06:53:22.397Z,56.48
2017-04-13T06:54:02.902Z,55.84
2017-04-13T06:54:43.380Z,55.55
2017-04-13T06:55:23.911Z,54.99
2017-04-13T06:56:04.376Z,54.79
2017-04-13T06:56:44.859Z,54.5
2017-04-13T06:57:25.319Z,54.7
2017-04-13T06:58:05.814Z,54.63
2017-04-13T06:58:46.395Z,54.32
2017-04-13T06:59:26.929Z,54.03
2017-04-13T07:00:07.463Z,53.65
2017-04-13T07:00:47.989Z,54.32
2017-04-13T07:01:28.567Z,54.79
2017-04-13T07:02:08.975Z,54.32
2017-04-13T07:02:49.538Z,53.93
2017-04-13T07:03:30.024Z,54.32
2017-04-13T07:04:10.485Z,53.86
2017-04-13T07:04:50.910Z,53.86
2017-04-13T07:05:31.376Z,53.49
2017-04-13T07:06:11.799Z,53.29
2017-04-13T07:06:52.281Z,53.67
2017-04-13T07:07:32.713Z,53.67
2017-04-13T07:08:13.155Z,53.2
2017-04-13T07:08:53.607Z,52.55
2017-04-13T07:09:34.060Z,51.5
2017-04-13T07:10:14.480Z,51.41
2017-04-13T07:10:54.911Z,51.76
2017-04-13T07:11:35.357Z,51.95
2017-04-13T07:12:16.346Z,51.95
2017-04-13T07:12:56.809Z,52.53
2017-04-13T07:13:37.268Z,52.53
2017-04-13T07:14:17.726Z,52.81
2017-04-13T07:14:58.206Z,52.43
2017-04-13T07:15:38.752Z,51.48
2017-04-13T07:16:19.170Z,51.76
2017-04-13T07:16:59.625Z,51.5
2017-04-13T07:17:40.099Z,51.03
2017-04-13T07:18:20.601Z,51.31
2017-04-13T07:19:01.034Z,51.19
2017-04-13T07:19:41.514Z,51.57
2017-04-13T07:20:21.943Z,50.84
2017-04-13T07:21:02.449Z,51.21
2017-04-13T07:21:42.841Z,50.55
2017-04-13T07:22:23.284Z,50.55
2017-04-13T07:24:10.771Z,50.26
2017-04-13T07:24:51.266Z,50.35
2017-04-13T07:25:31.718Z,50.26
2017-04-13T07:26:12.196Z,50.45
2017-04-13T07:28:24.953Z,50.35
2017-04-13T07:29:05.425Z,50.55
2017-04-13T07:29:45.889Z,50.45
2017-04-13T07:30:26.374Z,50.35
2017-04-13T07:31:06.861Z,49.9
2017-04-13T07:31:47.334Z,49.8
2017-04-13T07:32:27.755Z,49.62
2017-04-13T07:33:08.879Z,49.71
2017-04-13T07:33:49.289Z,49.33
2017-04-13T07:34:29.736Z,49.23
2017-04-13T07:36:27.371Z,48.75
2017-04-13T07:38:14.810Z,46.31
2017-04-13T07:38:55.295Z,45.84
2017-04-13T07:39:35.788Z,45.74
2017-04-13T07:40:16.769Z,45.55
2017-04-13T07:40:57.217Z,45.65
2017-04-13T07:41:37.665Z,45.65
2017-04-13T07:42:18.130Z,45.45
2017-04-13T07:42:58.597Z,44.98
2017-04-13T07:43:39.058Z,44.81
2017-04-13T07:44:19.504Z,45.55
2017-04-13T07:44:59.961Z,45.74
2017-04-13T07:45:40.409Z,45.45
2017-04-13T07:46:20.822Z,45.36
2017-04-13T07:47:01.310Z,46.01
2017-04-13T07:47:41.786Z,47.23
2017-04-13T07:48:22.203Z,48.57
2017-04-13T07:49:02.678Z,48.75
2017-04-13T07:49:43.246Z,49.14
2017-04-13T07:50:23.681Z,49.23
2017-04-13T07:51:04.175Z,49.04
2017-04-13T07:51:44.704Z,48.95
2017-04-13T07:52:25.173Z,48.95
2017-04-13T07:54:12.706Z,48.11
2017-04-13T07:54:53.243Z,47.34
2017-04-13T07:55:33.757Z,47.44
2017-04-13T07:57:51.633Z,45.57
2017-04-13T07:58:32.140Z,44.35
2017-04-13T07:59:12.618Z,42.72
2017-04-13T07:59:53.167Z,42.91
2017-04-13T08:01:40.705Z,42.14
2017-04-13T08:02:22.709Z,41.86
2017-04-13T08:03:01.974Z,42.44
2017-04-13T08:03:42.556Z,42.14
2017-04-13T08:04:23.159Z,42.44
2017-04-13T08:05:03.738Z,42.9
2017-04-13T08:05:44.348Z,43.95
2017-04-13T08:06:24.745Z,43.85
2017-04-13T08:07:05.247Z,44.23
2017-04-13T08:07:45.899Z,44.59
2017-04-13T08:08:26.400Z,44.79
2017-04-13T08:09:06.842Z,44.59
2017-04-13T08:09:47.336Z,44.88
2017-04-13T08:10:27.851Z,45.07
2017-04-13T08:11:08.345Z,45.45
2017-04-13T08:11:48.903Z,45.81
2017-04-13T08:12:29.422Z,46.3
2017-04-13T08:13:09.875Z,46.39
2017-04-13T08:13:50.618Z,46.96
2017-04-13T08:14:31.054Z,47.25
2017-04-13T08:15:11.515Z,47.16
2017-04-13T08:15:54.858Z,45.84
2017-04-13T08:16:35.329Z,44.64
2017-04-13T08:17:16.076Z,43.2
2017-04-13T08:17:56.503Z,42.24
2017-04-13T08:18:36.930Z,41.88
2017-04-13T08:19:17.385Z,41.13
2017-04-13T08:19:57.888Z,39.98
2017-04-13T08:20:38.350Z,39.98
2017-04-13T08:21:18.916Z,40.17
2017-04-13T08:21:59.277Z,39.89
2017-04-13T08:22:39.774Z,40.25
2017-04-13T08:23:20.300Z,40.83
2017-04-13T08:24:00.725Z,40.83
2017-04-13T08:24:41.164Z,41.5
2017-04-13T08:25:21.650Z,41.21
2017-04-13T08:26:02.152Z,40.27
2017-04-13T08:26:42.617Z,40.17
2017-04-13T08:27:23.076Z,39.79
2017-04-13T08:28:03.580Z,39.43
2017-04-13T08:28:44.061Z,38.66
2017-04-13T08:29:24.540Z,39.23
2017-04-13T08:30:05.019Z,39.33
2017-04-13T08:30:46.540Z,39.79
2017-04-13T08:31:27.016Z,39.79
2017-04-13T08:32:07.490Z,40.73
2017-04-13T08:32:48.233Z,41.5
2017-04-13T08:33:28.886Z,41.5
2017-04-13T08:34:09.400Z,41.6
2017-04-13T08:34:49.963Z,42.53
2017-04-13T08:35:30.629Z,42.44
2017-04-13T08:36:11.257Z,42.9
2017-04-13T08:36:51.725Z,43.08
2017-04-13T08:37:32.301Z,43.66
2017-04-13T08:38:12.917Z,43.76
2017-04-13T08:38:53.684Z,43.49
2017-04-13T08:39:34.136Z,43.08
2017-04-13T08:40:14.626Z,44.52
2017-04-13T08:40:55.058Z,45.07
2017-04-13T08:41:36.633Z,45.45
2017-04-13T08:42:17.104Z,45.55
2017-04-13T08:42:57.628Z,44.9
2017-04-13T08:43:38.163Z,45.36
2017-04-13T08:44:18.682Z,45.36
2017-04-13T08:44:59.168Z,45.55
2017-04-13T08:45:39.690Z,45.45
2017-04-13T08:46:20.234Z,45.74
2017-04-13T08:47:00.771Z,45.94
2017-04-13T08:47:41.320Z,46.03
2017-04-13T08:48:21.815Z,46.22
2017-04-13T08:49:02.338Z,46.51
2017-04-13T08:49:42.944Z,46.12
2017-04-13T08:50:23.465Z,47.34
2017-04-13T08:51:04.025Z,48.02
2017-04-13T08:51:44.531Z,48.66
2017-04-13T08:52:25.041Z,48.68
2017-04-13T08:53:05.770Z,48.39
2017-04-13T08:53:46.351Z,48.11
2017-04-13T08:54:26.901Z,48.02
2017-04-13T08:55:07.415Z,47.82
2017-04-13T08:55:48.021Z,48.02
2017-04-13T08:56:28.529Z,48.78
2017-04-13T08:57:09.149Z,48.88
2017-04-13T08:57:49.606Z,48.49
2017-04-13T08:58:30.048Z,48.49
2017-04-13T08:59:11.478Z,48.02
2017-04-13T08:59:51.956Z,47.92
2017-04-13T09:00:32.441Z,47.37
2017-04-13T09:01:12.912Z,47.27
2017-04-13T09:01:53.373Z,46.15
2017-04-13T09:02:33.864Z,45.57
2017-04-13T09:03:14.299Z,45.48
2017-04-13T09:03:54.776Z,44.35
2017-04-13T09:04:35.240Z,44.16
2017-04-13T09:05:15.711Z,43.77
2017-04-13T09:05:56.441Z,43.87
2017-04-13T09:06:36.835Z,43.77
2017-04-13T09:07:17.401Z,43.49
2017-04-13T09:07:58.044Z,42.94
2017-04-13T09:08:38.721Z,41.35
2017-04-13T09:09:19.231Z,39.73
2017-04-13T09:09:59.674Z,37.66
2017-04-13T09:10:40.124Z,35.95
2017-04-13T09:11:20.613Z,34.43
2017-04-13T09:12:01.101Z,33.12
2017-04-13T09:12:41.521Z,32.34
2017-04-13T09:13:21.986Z,32.52
2017-04-13T09:14:02.839Z,33
2017-04-13T09:14:43.293Z,32.52
2017-04-13T09:15:23.802Z,32.71
2017-04-13T09:16:04.315Z,33.45
2017-04-13T09:16:44.843Z,36.01
2017-04-13T09:17:25.273Z,37.43
2017-04-13T09:18:05.815Z,38.47
2017-04-13T09:18:46.274Z,38.95
2017-04-13T09:19:26.773Z,39.14
2017-04-13T09:20:07.216Z,39.45
2017-04-13T09:20:47.661Z,39.06
2017-04-13T09:21:28.095Z,38.95
2017-04-13T09:22:08.634Z,39.33
2017-04-13T09:22:49.086Z,39.81
2017-04-13T09:23:29.627Z,39.43
2017-04-13T09:24:10.062Z,39.23
2017-04-13T09:24:50.534Z,39.81
2017-04-13T09:25:30.928Z,40.08
2017-04-13T09:26:11.431Z,40
2017-04-13T09:26:51.888Z,39.79
2017-04-13T09:27:32.391Z,40.47
2017-04-13T09:29:24.966Z,41.88
2017-04-13T09:30:05.495Z,42.27
2017-04-13T09:30:46.096Z,41.5
2017-04-13T09:31:26.556Z,41.52
2017-04-13T09:32:07.063Z,41.42
2017-04-13T09:32:47.535Z,40.56
2017-04-13T09:33:27.987Z,40.75
2017-04-13T09:34:08.526Z,40.39
2017-04-13T09:34:49.864Z,39.81
2017-04-13T09:35:31.702Z,39.72
2017-04-13T09:36:13.046Z,38.29
2017-04-13T09:36:53.736Z,38.1
2017-04-13T09:38:52.156Z,36.3
2017-04-13T09:39:34.494Z,36.57
2017-04-13T09:41:22.039Z,36.68